Terminal Aerodrome Forecast
Issued by NWS Pueblo, CO

Home | Current Version | Previous Version | Text Only | Print | Product List | Glossary On
Versions: 1 2 3 4 5 6 7 8 9 10 11 12 13 14 15 16 17 18 19 20 21 22 23 24 25 26 27 28 29 30
000
FTUS45 KPUB 132333
TAFCOS
TAF
KCOS 132333Z 1400/1424 16005KT P6SM SCT120 SCT200
     FM140300 06006KT P6SM BKN080 BKN150
     FM140700 34011KT P6SM BKN040 OVC070
     FM140900 01012KT 4SM -SN BKN030 OVC050
     FM141500 34011KT P6SM VCSH SCT025 OVC040
     FM141700 35015G25KT P6SM SCT150=

USA.gov is the U.S. government's official web portal to all federal, state and local government web resources and services.